Aviation Digital Data Service (ADDS)

Output produced by METARs form (1318 UTC 22 April 2021)
found at http://www.aviationweather.gov/metar/data/
 
VTBS 221300Z 21008KT 9999 FEW020 30/26 Q1007 NOSIG
VTBS 221230Z 20011KT 9999 FEW020 31/26 Q1006 NOSIG
VTBS 221200Z 20010KT 9999 FEW020 31/26 Q1006 NOSIG
VTBS 221130Z 20011KT 160V230 9999 FEW020 31/25 Q1006 NOSIG
VTBS 221100Z 20011KT 9999 FEW020 32/26 Q1005 NOSIG
VTBS 221030Z 19010KT 9999 FEW020 32/26 Q1005 NOSIG
VTBS 221000Z 19009KT 9999 FEW020 33/26 Q1004 NOSIG
VTBS 220930Z 19011KT 9999 FEW020 33/25 Q1005 NOSIG
VTBS 220900Z 18013KT 9999 FEW020 33/25 Q1005 NOSIG
VTBS 220830Z 18012KT 9000 FEW020 SCT035 34/25 Q1004 NOSIG
VTBS 220800Z 18012KT 9000 FEW020 SCT035 34/26 Q1005 NOSIG
VTBS 220730Z VRB03KT 9000 FEW020 SCT035 35/23 Q1006 NOSIG
VTBS 220700Z 27004KT 220V310 9000 FEW020CB SCT035 35/22 Q1007 NOSIG
VTBS 220630Z VRB03KT 9000 VCTS FEW020CB SCT035 34/23 Q1007 NOSIG
VTBS 220600Z 28005KT 220V330 9000 VCTS FEW020CB 34/23 Q1008 NOSIG
VTBS 220530Z 25005KT 200V340 9000 FEW020 34/23 Q1008 NOSIG
VTBS 220500Z 28006KT 230V320 9000 FEW020 34/24 Q1009 NOSIG
VTBS 220430Z 26007KT 210V310 9000 FEW020 33/24 Q1009 NOSIG
VTBS 220400Z 28006KT 230V330 9000 FEW020 SCT030 33/24 Q1010 NOSIG
VTBS 220330Z 24005KT 180V300 9000 FEW020 SCT030 33/25 Q1010 NOSIG
VTBS 220300Z 21005KT 170V240 9000 FEW020 SCT030 32/26 Q1010 NOSIG
VTBS 220230Z 18008KT 9000 FEW020 SCT030 31/26 Q1010 NOSIG
VTBS 220200Z 22003KT 150V290 9000 FEW018CB SCT030 31/26 Q1010 NOSIG
VTBS 220130Z VRB01KT 9000 FEW015 FEW020CB SCT030 31/27 Q1010 NOSIG
VTBS 220100Z VRB02KT 9000 FEW020CB 31/27 Q1010 NOSIG
VTBS 220030Z VRB01KT 9000 FEW020CB 30/27 Q1009 NOSIG
VTBS 220000Z VRB01KT 9999 FEW020 28/26 Q1009 NOSIG
VTBS 212330Z 00000KT 9999 FEW020 27/26 Q1009 NOSIG
VTBS 212300Z 00000KT 9999 FEW020 28/26 Q1008 NOSIG
VTBS 212230Z 00000KT 9999 FEW020 28/26 Q1008 NOSIG
VTBS 212200Z 22002KT 9999 FEW020 28/26 Q1007 NOSIG
VTBS 212130Z 22002KT 9999 FEW020 28/26 Q1007 NOSIG
VTBS 212100Z 19004KT 9999 FEW020 28/26 Q1007 NOSIG
VTBS 212030Z 22003KT 9999 FEW020 28/26 Q1007 NOSIG
VTBS 212000Z 23005KT 9999 FEW020 28/27 Q1007 NOSIG
VTBS 211930Z 20005KT 9999 FEW020 28/27 Q1007 NOSIG
VTBS 211900Z 20007KT 9999 FEW020 28/27 Q1007 NOSIG
VTBS 211830Z 19005KT 9999 SCT020 29/26 Q1008 NOSIG
VTBS 211800Z 19006KT 9999 FEW020 29/26 Q1008 NOSIG
VTBS 211730Z 20007KT 9999 FEW020 29/26 Q1008 NOSIG
VTBS 211700Z 20006KT 9999 FEW020 29/27 Q1009 NOSIG
VTBS 211630Z 20007KT 9999 FEW020 29/26 Q1009 NOSIG
VTBS 211600Z 18007KT 9999 FEW020 29/26 Q1009 NOSIG
VTBS 211530Z 19005KT 9999 FEW020 29/27 Q1010 NOSIG
VTBS 211500Z 20005KT 9999 FEW020 29/26 Q1009 NOSIG
VTBS 211430Z 20006KT 9999 FEW020 29/26 Q1009 NOSIG
VTBS 211400Z 20005KT 9999 FEW020 29/26 Q1008 NOSIG
VTBS 211330Z 20006KT 9999 FEW020 29/26 Q1008 NOSIG
TAF VTBS 221100Z 2212/2318 20008KT 9999 FEW020